Time;durP1;ratioP1;P1;durP2;ratioP2;P2;SDS_P1;SDS_P2;PMS_P1;PMS_P2;Temp;Humidity;BMP_temperature;BMP_pressure;BME280_temperature;BME280_humidity;BME280_pressure;Samples;Min_cycle;Max_cycle;Signal;HPM_P1;HPM_P2
2023/12/17 00:00:11;;;;;;;24.88;15.45;;;8.20;61.00;;;;;;345738;28;1028;-56
2023/12/17 00:00:22;;;;;;;26.70;16.45;;;8.20;61.00;;;;;;345687;28;1020;-57
2023/12/17 00:00:32;;;;;;;28.13;17.20;;;8.20;61.00;;;;;;345696;28;972;-56
2023/12/17 00:00:43;;;;;;;31.47;18.60;;;8.20;60.90;;;;;;345622;28;968;-57
2023/12/17 00:00:54;;;;;;;32.97;19.20;;;8.30;60.90;;;;;;345629;28;1597;-57
2023/12/17 00:01:05;;;;;;;36.00;20.20;;;8.20;60.90;;;;;;345690;28;1072;-57
2023/12/17 00:01:16;;;;;;;38.40;21.20;;;8.20;60.80;;;;;;345726;28;1016;-56
2023/12/17 00:01:26;;;;;;;41.50;22.58;;;8.20;60.80;;;;;;345669;28;1063;-57
2023/12/17 00:01:37;;;;;;;42.63;22.93;;;8.20;60.80;;;;;;345494;28;1120;-57
2023/12/17 00:01:48;;;;;;;43.03;22.35;;;8.20;60.80;;;;;;345692;28;1075;-57
2023/12/17 00:01:59;;;;;;;42.75;22.02;;;8.20;60.80;;;;;;345688;28;1112;-57
2023/12/17 00:02:09;;;;;;;41.10;21.90;;;8.20;60.80;;;;;;345609;28;1028;-57
2023/12/17 00:02:20;;;;;;;39.88;21.88;;;8.20;60.80;;;;;;345733;28;968;-57
2023/12/17 00:02:31;;;;;;;38.67;21.33;;;8.20;60.80;;;;;;345739;28;976;-55
2023/12/17 00:02:41;;;;;;;39.05;21.40;;;8.20;60.80;;;;;;345666;28;849;-56
2023/12/17 00:02:52;;;;;;;39.50;21.58;;;8.20;60.80;;;;;;345613;28;1095;-57
2023/12/17 00:03:03;;;;;;;39.40;21.23;;;8.20;60.80;;;;;;345727;28;898;-56
2023/12/17 00:03:14;;;;;;;39.17;20.50;;;8.20;60.80;;;;;;345669;28;1070;-59
2023/12/17 00:03:26;;;;;;;35.47;19.00;;;8.20;60.80;;;;;;345693;28;1036;-57
2023/12/17 00:03:37;;;;;;;30.63;17.13;;;8.20;60.80;;;;;;345615;28;1980;-57
2023/12/17 00:03:48;;;;;;;26.77;15.35;;;8.20;60.80;;;;;;345703;28;1072;-58
2023/12/17 00:03:58;;;;;;;25.60;14.67;;;8.20;60.80;;;;;;345662;28;1182;-57
2023/12/17 00:04:09;;;;;;;24.93;15.03;;;8.20;60.90;;;;;;345708;28;1519;-58
2023/12/17 00:04:20;;;;;;;25.48;15.10;;;8.20;60.90;;;;;;345661;28;870;-58
2023/12/17 00:04:31;;;;;;;26.92;15.30;;;8.20;60.90;;;;;;345743;28;865;-57
2023/12/17 00:04:41;;;;;;;28.95;15.65;;;8.20;60.90;;;;;;345639;28;1526;-57
2023/12/17 00:04:52;;;;;;;30.83;17.00;;;8.20;60.90;;;;;;345668;28;1096;-56
2023/12/17 00:05:03;;;;;;;33.07;17.73;;;8.20;60.90;;;;;;345640;28;1020;-57
2023/12/17 00:05:16;;;;;;;38.30;19.52;;;8.20;60.90;;;;;;345725;28;1135;-58
2023/12/17 00:05:26;;;;;;;42.05;21.02;;;8.20;60.90;;;;;;345692;28;1103;-58
2023/12/17 00:05:37;;;;;;;45.10;22.17;;;8.20;61.00;;;;;;345611;28;2091;-57
2023/12/17 00:05:48;;;;;;;48.17;22.95;;;8.20;61.00;;;;;;345618;28;1287;-58
2023/12/17 00:05:59;;;;;;;49.58;23.88;;;8.20;61.00;;;;;;345712;28;1372;-56
2023/12/17 00:06:10;;;;;;;49.13;24.23;;;8.20;61.00;;;;;;345721;28;940;-57
2023/12/17 00:06:21;;;;;;;48.15;24.08;;;8.20;61.00;;;;;;345704;28;1059;-56
2023/12/17 00:06:34;;;;;;;47.92;23.27;;;8.20;61.10;;;;;;345660;28;1047;-58
2023/12/17 00:06:45;;;;;;;47.92;23.77;;;8.20;61.10;;;;;;345684;28;1644;-57
2023/12/17 00:06:55;;;;;;;54.20;25.65;;;8.20;61.10;;;;;;345683;28;1087;-58
2023/12/17 00:07:06;;;;;;;58.67;27.85;;;8.20;61.10;;;;;;345600;28;1081;-57
2023/12/17 00:07:17;;;;;;;64.50;29.77;;;8.20;61.10;;;;;;345787;28;927;-57
2023/12/17 00:07:28;;;;;;;65.97;31.15;;;8.20;61.00;;;;;;345631;28;1111;-57
2023/12/17 00:07:39;;;;;;;67.30;31.30;;;8.20;61.00;;;;;;345710;28;1019;-56
2023/12/17 00:07:49;;;;;;;60.20;28.80;;;8.20;61.00;;;;;;345600;28;1089;-56
2023/12/17 00:08:00;;;;;;;52.23;25.93;;;8.20;60.90;;;;;;345603;28;1434;-57
2023/12/17 00:08:11;;;;;;;45.83;23.15;;;8.20;60.90;;;;;;345714;28;910;-57
2023/12/17 00:08:22;;;;;;;40.50;21.02;;;8.20;60.90;;;;;;345756;28;999;-57
2023/12/17 00:08:33;;;;;;;35.13;18.48;;;8.20;60.90;;;;;;345560;28;1930;-57
2023/12/17 00:08:44;;;;;;;32.13;16.85;;;8.20;60.80;;;;;;345710;28;967;-57
2023/12/17 00:08:54;;;;;;;33.00;16.98;;;8.20;60.90;;;;;;345709;28;833;-58
2023/12/17 00:09:05;;;;;;;31.80;16.65;;;8.20;60.80;;;;;;345696;28;991;-56
2023/12/17 00:09:16;;;;;;;30.63;16.45;;;8.20;60.80;;;;;;345616;28;999;-57
2023/12/17 00:09:27;;;;;;;28.67;15.57;;;8.20;60.80;;;;;;345688;28;1083;-57
2023/12/17 00:09:38;;;;;;;29.25;15.95;;;8.20;60.80;;;;;;345651;28;1074;-57
2023/12/17 00:09:49;;;;;;;29.92;15.73;;;8.20;60.80;;;;;;345706;28;892;-57
2023/12/17 00:09:59;;;;;;;29.73;16.15;;;8.20;60.80;;;;;;345625;28;920;-56
2023/12/17 00:10:10;;;;;;;29.35;15.27;;;8.20;60.80;;;;;;345693;28;924;-56
2023/12/17 00:10:22;;;;;;;28.08;15.25;;;8.20;60.80;;;;;;345664;28;2401;-57
2023/12/17 00:10:32;;;;;;;26.90;15.60;;;8.20;60.80;;;;;;345716;28;997;-56
2023/12/17 00:10:43;;;;;;;23.23;14.98;;;8.20;60.80;;;;;;345545;28;1147;-57
2023/12/17 00:10:54;;;;;;;19.27;13.27;;;8.30;60.80;;;;;;345680;28;1027;-57
2023/12/17 00:11:05;;;;;;;16.70;11.77;;;8.20;60.80;;;;;;345637;28;1071;-57
2023/12/17 00:11:16;;;;;;;16.45;11.85;;;8.20;60.70;;;;;;345668;28;1020;-57
2023/12/17 00:11:26;;;;;;;17.33;12.13;;;8.30;60.70;;;;;;345616;28;931;-57
2023/12/17 00:11:41;;;;;;;18.33;12.20;;;8.30;60.70;;;;;;345635;28;1146;-55
2023/12/17 00:11:52;;;;;;;20.05;12.65;;;8.20;60.70;;;;;;345626;28;1013;-56
2023/12/17 00:12:03;;;;;;;20.52;13.15;;;8.20;60.80;;;;;;345696;28;964;-57
2023/12/17 00:12:14;;;;;;;19.40;12.93;;;8.20;60.80;;;;;;345676;28;1082;-57
2023/12/17 00:12:24;;;;;;;18.05;12.43;;;8.20;60.80;;;;;;345545;28;1158;-57
2023/12/17 00:12:35;;;;;;;17.13;12.10;;;8.20;60.80;;;;;;345649;28;1972;-58
2023/12/17 00:12:46;;;;;;;16.40;11.70;;;8.20;60.80;;;;;;345668;28;825;-57
2023/12/17 00:12:56;;;;;;;16.65;11.63;;;8.20;60.80;;;;;;345577;28;1162;-57
2023/12/17 00:13:07;;;;;;;16.52;11.55;;;8.20;60.80;;;;;;345662;28;1067;-56
2023/12/17 00:13:19;;;;;;;16.52;12.18;;;8.20;60.80;;;;;;345721;28;876;-57
2023/12/17 00:13:29;;;;;;;16.10;12.05;;;8.20;60.80;;;;;;345600;28;1099;-57
2023/12/17 00:13:40;;;;;;;16.45;12.30;;;8.20;60.80;;;;;;345640;28;1096;-56
2023/12/17 00:13:51;;;;;;;16.35;12.23;;;8.20;60.80;;;;;;345718;28;1012;-56
2023/12/17 00:14:02;;;;;;;16.48;12.70;;;8.20;60.80;;;;;;345609;28;1070;-57
2023/12/17 00:14:15;;;;;;;15.43;12.40;;;8.20;60.80;;;;;;345648;28;1107;-57
2023/12/17 00:14:26;;;;;;;14.95;12.05;;;8.20;60.80;;;;;;345629;28;1035;-57
2023/12/17 00:14:37;;;;;;;15.77;11.60;;;8.20;60.80;;;;;;345673;28;1038;-56
2023/12/17 00:14:47;;;;;;;16.80;11.80;;;8.20;60.80;;;;;;345695;28;892;-58
2023/12/17 00:14:58;;;;;;;16.60;11.88;;;8.20;60.80;;;;;;345611;28;888;-57
2023/12/17 00:15:10;;;;;;;16.03;12.03;;;8.20;60.80;;;;;;345662;28;1580;-57
2023/12/17 00:15:20;;;;;;;15.20;11.57;;;8.20;60.70;;;;;;345723;28;1055;-56
2023/12/17 00:15:31;;;;;;;14.30;11.27;;;8.20;60.80;;;;;;345612;28;993;-58
2023/12/17 00:15:42;;;;;;;15.03;11.40;;;8.20;60.70;;;;;;345657;28;1063;-57
2023/12/17 00:15:53;;;;;;;15.05;11.50;;;8.20;60.70;;;;;;345620;28;1111;-58
2023/12/17 00:16:04;;;;;;;15.73;11.77;;;8.20;60.70;;;;;;345592;28;1055;-58
2023/12/17 00:16:15;;;;;;;14.45;11.60;;;8.20;60.70;;;;;;345767;28;941;-58
2023/12/17 00:16:26;;;;;;;13.60;11.00;;;8.20;60.70;;;;;;345674;28;1865;-57
2023/12/17 00:16:37;;;;;;;13.13;11.00;;;8.20;60.70;;;;;;345673;28;1169;-58
2023/12/17 00:16:47;;;;;;;13.17;11.07;;;8.20;60.70;;;;;;345702;28;1007;-57
2023/12/17 00:16:58;;;;;;;13.35;11.32;;;8.20;60.70;;;;;;345634;28;1076;-58
2023/12/17 00:17:10;;;;;;;13.60;11.50;;;8.20;60.70;;;;;;345606;28;1078;-57
2023/12/17 00:17:21;;;;;;;15.20;11.65;;;8.20;60.70;;;;;;345741;28;953;-58
2023/12/17 00:17:32;;;;;;;15.32;11.38;;;8.20;60.70;;;;;;345677;28;1553;-57
2023/12/17 00:17:42;;;;;;;14.13;11.00;;;8.20;60.70;;;;;;345604;28;1039;-58
2023/12/17 00:17:53;;;;;;;13.95;11.60;;;8.20;60.70;;;;;;345660;28;1067;-57
2023/12/17 00:18:05;;;;;;;13.48;11.65;;;8.20;60.70;;;;;;345656;28;1008;-58
2023/12/17 00:18:16;;;;;;;14.45;11.75;;;8.20;60.70;;;;;;345651;28;952;-58
2023/12/17 00:18:27;;;;;;;15.45;11.57;;;8.10;60.70;;;;;;345721;28;984;-57
2023/12/17 00:18:37;;;;;;;15.77;12.00;;;8.20;60.70;;;;;;345703;28;996;-59
2023/12/17 00:18:48;;;;;;;14.82;12.00;;;8.20;60.70;;;;;;345567;28;984;-57
2023/12/17 00:18:59;;;;;;;14.13;11.47;;;8.20;60.70;;;;;;345680;28;957;-57
2023/12/17 00:19:10;;;;;;;13.90;11.05;;;8.20;60.70;;;;;;345745;28;797;-57
2023/12/17 00:19:20;;;;;;;13.85;10.70;;;8.20;60.80;;;;;;345561;28;1268;-58
2023/12/17 00:19:31;;;;;;;13.73;10.85;;;8.20;60.80;;;;;;345651;28;1166;-57
2023/12/17 00:19:42;;;;;;;13.85;10.90;;;8.10;60.80;;;;;;345645;28;988;-56
2023/12/17 00:19:53;;;;;;;13.43;10.70;;;8.20;60.80;;;;;;345610;28;1296;-57
2023/12/17 00:20:04;;;;;;;14.23;10.65;;;8.20;60.80;;;;;;345664;28;1401;-58
2023/12/17 00:20:15;;;;;;;14.00;10.80;;;8.20;60.80;;;;;;345704;28;1519;-59
2023/12/17 00:20:25;;;;;;;14.02;11.05;;;8.20;60.80;;;;;;345584;28;1091;-57
2023/12/17 00:20:36;;;;;;;14.82;11.40;;;8.20;60.80;;;;;;345704;28;1023;-57
2023/12/17 00:20:47;;;;;;;14.68;11.30;;;8.10;60.80;;;;;;345642;28;1535;-57
2023/12/17 00:20:58;;;;;;;14.63;11.05;;;8.20;60.70;;;;;;345657;28;1055;-58
2023/12/17 00:21:08;;;;;;;14.07;10.88;;;8.20;60.70;;;;;;345655;28;984;-57
2023/12/17 00:21:19;;;;;;;14.47;11.07;;;8.20;60.80;;;;;;345628;28;1091;-57
2023/12/17 00:21:30;;;;;;;14.40;11.00;;;8.20;60.80;;;;;;345703;28;863;-58
2023/12/17 00:21:41;;;;;;;14.80;11.32;;;8.20;60.80;;;;;;345707;28;1024;-58
2023/12/17 00:21:51;;;;;;;14.13;11.23;;;8.20;60.80;;;;;;345581;28;1037;-57
2023/12/17 00:22:02;;;;;;;13.88;11.10;;;8.20;60.90;;;;;;345675;28;1800;-57
2023/12/17 00:22:13;;;;;;;13.57;10.70;;;8.20;60.90;;;;;;345732;28;1000;-58
2023/12/17 00:22:24;;;;;;;13.30;10.57;;;8.20;60.90;;;;;;345624;28;1012;-55
2023/12/17 00:22:34;;;;;;;13.02;10.63;;;8.20;60.90;;;;;;345568;28;1540;-57
2023/12/17 00:22:45;;;;;;;13.75;10.73;;;8.20;60.80;;;;;;345731;28;896;-57
2023/12/17 00:22:56;;;;;;;15.25;10.63;;;8.10;60.80;;;;;;345727;28;892;-58
2023/12/17 00:23:07;;;;;;;15.30;10.37;;;8.20;60.80;;;;;;345655;28;1094;-57
2023/12/17 00:23:17;;;;;;;14.60;10.32;;;8.20;60.90;;;;;;345536;28;1083;-57
2023/12/17 00:23:28;;;;;;;13.80;10.18;;;8.10;60.90;;;;;;345662;28;1162;-57
2023/12/17 00:23:39;;;;;;;13.73;10.13;;;8.10;60.90;;;;;;345624;28;1004;-57
2023/12/17 00:23:50;;;;;;;14.13;10.15;;;8.10;60.90;;;;;;345671;28;912;-58
2023/12/17 00:24:01;;;;;;;13.80;10.07;;;8.10;60.90;;;;;;345618;28;1004;-57
2023/12/17 00:24:11;;;;;;;13.73;10.35;;;8.10;60.90;;;;;;345593;28;1630;-56
2023/12/17 00:24:22;;;;;;;13.40;10.30;;;8.20;60.80;;;;;;345716;28;1039;-56
2023/12/17 00:24:33;;;;;;;13.43;10.00;;;8.10;60.80;;;;;;345655;28;926;-57
2023/12/17 00:24:43;;;;;;;12.63;9.55;;;8.10;60.80;;;;;;345636;28;900;-57
2023/12/17 00:24:54;;;;;;;13.63;9.67;;;8.10;60.80;;;;;;345652;28;1087;-56
2023/12/17 00:25:06;;;;;;;14.25;9.85;;;8.20;60.80;;;;;;345681;28;984;-57
2023/12/17 00:25:16;;;;;;;14.25;10.10;;;8.20;60.90;;;;;;345630;28;1337;-57
2023/12/17 00:25:27;;;;;;;12.50;9.82;;;8.10;60.80;;;;;;345576;28;1622;-57
2023/12/17 00:25:38;;;;;;;12.67;10.00;;;8.20;60.80;;;;;;345608;28;994;-55
2023/12/17 00:25:49;;;;;;;13.90;10.20;;;8.20;60.80;;;;;;345626;28;1150;-58
2023/12/17 00:26:00;;;;;;;14.35;10.38;;;8.10;60.80;;;;;;345675;28;1031;-56
2023/12/17 00:26:10;;;;;;;13.35;10.02;;;8.20;60.80;;;;;;345590;28;1203;-57
2023/12/17 00:26:21;;;;;;;12.68;10.00;;;8.10;60.80;;;;;;345651;28;1100;-57
2023/12/17 00:26:32;;;;;;;13.95;10.18;;;8.20;60.80;;;;;;345647;28;1115;-58
2023/12/17 00:26:43;;;;;;;14.55;10.35;;;8.10;60.80;;;;;;345529;28;992;-57
2023/12/17 00:26:57;;;;;;;15.35;10.27;;;8.20;60.80;;;;;;345719;28;1085;-58
2023/12/17 00:27:07;;;;;;;13.57;10.27;;;8.20;60.80;;;;;;345698;28;1106;-58
2023/12/17 00:27:18;;;;;;;13.40;10.52;;;8.10;60.80;;;;;;345560;28;1072;-57
2023/12/17 00:27:29;;;;;;;11.93;10.20;;;8.20;60.80;;;;;;345677;28;1139;-57
2023/12/17 00:27:40;;;;;;;12.68;10.13;;;8.10;60.80;;;;;;345630;28;984;-56
2023/12/17 00:27:50;;;;;;;13.03;10.17;;;8.10;60.80;;;;;;345572;28;1448;-57
2023/12/17 00:28:01;;;;;;;13.27;10.13;;;8.10;60.70;;;;;;345674;28;928;-58
2023/12/17 00:28:12;;;;;;;12.40;9.95;;;8.10;60.70;;;;;;345694;28;884;-57
2023/12/17 00:28:23;;;;;;;12.38;9.90;;;8.20;60.70;;;;;;345641;28;915;-58
2023/12/17 00:28:34;;;;;;;13.07;10.23;;;8.20;60.70;;;;;;345615;28;1981;-56
2023/12/17 00:28:44;;;;;;;13.25;9.82;;;8.20;60.70;;;;;;345650;28;900;-57
2023/12/17 00:28:55;;;;;;;13.20;9.63;;;8.20;60.70;;;;;;345487;28;1048;-58
2023/12/17 00:29:06;;;;;;;13.00;9.57;;;8.10;60.70;;;;;;345610;28;1151;-57
2023/12/17 00:29:17;;;;;;;12.30;9.52;;;8.10;60.70;;;;;;345682;28;1112;-57
2023/12/17 00:29:27;;;;;;;13.20;9.90;;;8.10;60.60;;;;;;345601;28;1043;-57
2023/12/17 00:29:38;;;;;;;14.68;10.27;;;8.10;60.60;;;;;;345631;28;1114;-59
2023/12/17 00:29:49;;;;;;;14.68;10.23;;;8.10;60.60;;;;;;345621;28;1004;-58
2023/12/17 00:30:00;;;;;;;14.30;9.97;;;8.10;60.60;;;;;;345575;28;880;-58
2023/12/17 00:30:10;;;;;;;13.68;9.77;;;8.10;60.60;;;;;;345615;28;1138;-56
2023/12/17 00:30:21;;;;;;;13.70;9.93;;;8.20;60.60;;;;;;345723;28;904;-57
2023/12/17 00:30:32;;;;;;;12.90;10.18;;;8.10;60.50;;;;;;345622;28;1116;-57
2023/12/17 00:30:44;;;;;;;14.95;11.95;;;8.10;60.50;;;;;;345630;28;1043;-59
2023/12/17 00:30:54;;;;;;;18.70;14.32;;;8.10;60.50;;;;;;345699;28;991;-56
2023/12/17 00:31:05;;;;;;;20.63;15.63;;;8.20;60.50;;;;;;345611;28;951;-57
2023/12/17 00:31:16;;;;;;;19.42;14.30;;;8.20;60.50;;;;;;345650;28;1008;-58
2023/12/17 00:31:27;;;;;;;17.40;12.88;;;8.10;60.50;;;;;;345646;28;1143;-56
2023/12/17 00:31:37;;;;;;;15.45;11.80;;;8.10;60.50;;;;;;345624;28;1441;-57
2023/12/17 00:31:48;;;;;;;14.10;11.07;;;8.10;60.50;;;;;;345672;28;1324;-57
2023/12/17 00:31:59;;;;;;;12.90;10.33;;;8.10;60.60;;;;;;345564;28;1457;-58
2023/12/17 00:32:10;;;;;;;13.05;10.32;;;8.10;60.60;;;;;;345570;28;1011;-57
2023/12/17 00:32:20;;;;;;;12.75;10.23;;;8.10;60.60;;;;;;345647;28;1011;-56
2023/12/17 00:32:31;;;;;;;12.75;10.20;;;8.10;60.60;;;;;;345667;28;893;-57
2023/12/17 00:32:42;;;;;;;12.73;10.17;;;8.10;60.60;;;;;;345377;28;1477;-57
2023/12/17 00:32:53;;;;;;;13.20;9.93;;;8.10;60.60;;;;;;345453;28;1030;-57
2023/12/17 00:33:04;;;;;;;13.20;9.98;;;8.10;60.60;;;;;;345633;28;1024;-56
2023/12/17 00:33:14;;;;;;;14.40;10.20;;;8.10;60.60;;;;;;345587;28;1034;-58
2023/12/17 00:33:25;;;;;;;13.77;9.98;;;8.20;60.60;;;;;;345664;28;1068;-58
2023/12/17 00:33:36;;;;;;;14.07;10.00;;;8.10;60.70;;;;;;345657;28;888;-59
2023/12/17 00:33:47;;;;;;;12.60;9.85;;;8.10;60.70;;;;;;345629;28;1023;-57
2023/12/17 00:34:00;;;;;;;13.13;10.20;;;8.10;60.70;;;;;;345695;28;1839;-59
2023/12/17 00:34:10;;;;;;;13.55;10.70;;;8.10;60.70;;;;;;345659;28;1035;-57
2023/12/17 00:34:21;;;;;;;13.03;10.53;;;8.10;60.60;;;;;;345560;28;1412;-57
2023/12/17 00:34:32;;;;;;;12.60;10.05;;;8.20;60.60;;;;;;345593;28;1116;-57
2023/12/17 00:34:43;;;;;;;12.10;9.68;;;8.10;60.60;;;;;;345581;28;1245;-58
2023/12/17 00:34:53;;;;;;;13.32;9.75;;;8.10;60.60;;;;;;345607;28;1035;-57
2023/12/17 00:35:04;;;;;;;13.43;10.03;;;8.10;60.60;;;;;;345683;28;837;-57
2023/12/17 00:35:16;;;;;;;14.48;10.40;;;8.10;60.60;;;;;;345683;28;893;-56
2023/12/17 00:35:26;;;;;;;14.20;10.25;;;8.10;60.60;;;;;;345601;28;1027;-59
2023/12/17 00:35:37;;;;;;;13.70;10.13;;;8.10;60.60;;;;;;345637;28;981;-56
2023/12/17 00:35:48;;;;;;;14.33;10.23;;;8.10;60.60;;;;;;345651;28;988;-57
2023/12/17 00:35:59;;;;;;;14.25;10.40;;;8.10;60.60;;;;;;345597;28;914;-57
2023/12/17 00:36:10;;;;;;;14.70;10.25;;;8.20;60.60;;;;;;345690;28;1005;-57
2023/12/17 00:36:21;;;;;;;14.40;10.10;;;8.10;60.60;;;;;;345637;28;1012;-57
2023/12/17 00:36:31;;;;;;;14.45;10.43;;;8.10;60.60;;;;;;345524;28;1424;-58
2023/12/17 00:36:42;;;;;;;13.77;10.32;;;8.10;60.50;;;;;;345617;28;1079;-58
2023/12/17 00:36:53;;;;;;;12.82;9.95;;;8.10;60.50;;;;;;345711;28;1783;-56
2023/12/17 00:37:04;;;;;;;13.17;9.87;;;8.10;60.60;;;;;;345652;28;1013;-58
2023/12/17 00:37:14;;;;;;;13.23;10.17;;;8.10;60.60;;;;;;345598;28;1166;-57
2023/12/17 00:37:25;;;;;;;13.73;9.93;;;8.20;60.60;;;;;;345663;28;809;-58
2023/12/17 00:37:36;;;;;;;13.43;9.77;;;8.10;60.50;;;;;;345623;28;1095;-58
2023/12/17 00:37:47;;;;;;;13.32;9.70;;;8.10;60.50;;;;;;345672;28;846;-57
2023/12/17 00:37:58;;;;;;;13.13;9.90;;;8.10;60.50;;;;;;345603;28;1036;-56
2023/12/17 00:38:09;;;;;;;13.05;9.85;;;8.10;60.50;;;;;;345717;28;846;-56
2023/12/17 00:38:20;;;;;;;13.73;10.00;;;8.10;60.50;;;;;;345701;28;1019;-56
2023/12/17 00:38:30;;;;;;;13.82;10.02;;;8.10;60.50;;;;;;345618;28;945;-57
2023/12/17 00:38:41;;;;;;;15.17;10.47;;;8.10;60.50;;;;;;345715;28;921;-57
2023/12/17 00:38:52;;;;;;;14.13;10.13;;;8.10;60.50;;;;;;345615;28;1020;-56
2023/12/17 00:39:03;;;;;;;14.48;10.07;;;8.10;60.60;;;;;;345659;28;985;-58
2023/12/17 00:39:13;;;;;;;13.50;9.90;;;8.10;60.50;;;;;;345561;28;1127;-56
2023/12/17 00:39:24;;;;;;;14.52;10.32;;;8.10;60.60;;;;;;345642;28;1036;-57
2023/12/17 00:39:35;;;;;;;12.90;10.43;;;8.10;60.60;;;;;;345636;28;1027;-57
2023/12/17 00:39:46;;;;;;;12.50;10.40;;;8.10;60.60;;;;;;345695;28;1026;-58
2023/12/17 00:39:56;;;;;;;12.80;10.05;;;8.10;60.60;;;;;;345571;28;880;-58
2023/12/17 00:40:08;;;;;;;12.68;9.55;;;8.10;60.60;;;;;;345658;28;1922;-57
2023/12/17 00:40:18;;;;;;;12.40;9.25;;;8.10;60.60;;;;;;345616;28;837;-58
2023/12/17 00:40:29;;;;;;;12.30;9.30;;;8.10;60.50;;;;;;345623;28;1222;-57
2023/12/17 00:40:40;;;;;;;12.90;9.48;;;8.10;60.60;;;;;;345521;28;1581;-58
2023/12/17 00:40:50;;;;;;;12.43;9.67;;;8.10;60.50;;;;;;345608;28;1043;-57
2023/12/17 00:41:01;;;;;;;12.03;9.70;;;8.10;60.50;;;;;;345657;28;1043;-57
2023/12/17 00:41:13;;;;;;;12.63;9.52;;;8.10;60.50;;;;;;345660;28;976;-57
2023/12/17 00:41:24;;;;;;;12.93;9.60;;;8.10;60.50;;;;;;345615;28;1122;-58
2023/12/17 00:41:35;;;;;;;13.90;10.18;;;8.10;60.50;;;;;;345639;28;1082;-57
2023/12/17 00:41:45;;;;;;;14.82;10.75;;;8.10;60.50;;;;;;345599;28;1015;-57
2023/12/17 00:41:56;;;;;;;15.03;10.90;;;8.10;60.50;;;;;;345665;28;1028;-57
2023/12/17 00:42:07;;;;;;;13.45;10.32;;;8.10;60.50;;;;;;345559;28;1075;-57
2023/12/17 00:42:17;;;;;;;12.80;10.02;;;8.10;60.50;;;;;;345603;28;1399;-57
2023/12/17 00:42:28;;;;;;;12.93;10.05;;;8.00;60.50;;;;;;345620;28;1163;-57
2023/12/17 00:42:39;;;;;;;13.00;10.07;;;8.10;60.40;;;;;;345534;28;1105;-58
2023/12/17 00:42:50;;;;;;;12.73;10.30;;;8.00;60.50;;;;;;345628;28;992;-57
2023/12/17 00:43:00;;;;;;;12.63;10.02;;;8.00;60.50;;;;;;345591;28;1819;-57
2023/12/17 00:43:11;;;;;;;13.40;9.95;;;8.00;60.50;;;;;;345638;28;1063;-57
2023/12/17 00:43:22;;;;;;;13.00;9.98;;;8.00;60.50;;;;;;345577;28;1016;-57
2023/12/17 00:43:35;;;;;;;12.73;9.98;;;8.00;60.50;;;;;;345650;28;1308;-57
2023/12/17 00:43:45;;;;;;;13.10;10.15;;;8.10;60.50;;;;;;345605;28;949;-57
2023/12/17 00:43:56;;;;;;;13.95;10.00;;;8.10;60.50;;;;;;345646;28;838;-56
2023/12/17 00:44:07;;;;;;;13.68;10.07;;;8.00;60.50;;;;;;345691;28;904;-57
2023/12/17 00:44:18;;;;;;;14.80;9.88;;;8.00;60.50;;;;;;345569;28;1112;-56
2023/12/17 00:44:28;;;;;;;14.90;9.83;;;8.00;60.50;;;;;;345621;28;1035;-57
2023/12/17 00:44:39;;;;;;;14.40;9.87;;;8.00;60.60;;;;;;345639;28;904;-57
2023/12/17 00:44:50;;;;;;;15.38;10.40;;;8.00;60.60;;;;;;345615;28;1816;-58
2023/12/17 00:45:01;;;;;;;14.32;10.52;;;8.00;60.60;;;;;;345531;28;1021;-57
2023/12/17 00:45:12;;;;;;;13.98;10.55;;;8.10;60.60;;;;;;345638;28;858;-57
2023/12/17 00:45:23;;;;;;;13.00;10.65;;;8.00;60.60;;;;;;345554;28;1000;-56
2023/12/17 00:45:34;;;;;;;13.93;10.52;;;8.00;60.60;;;;;;345673;28;917;-57
2023/12/17 00:45:44;;;;;;;14.00;10.10;;;8.00;60.60;;;;;;345505;28;1019;-57
2023/12/17 00:45:55;;;;;;;13.45;9.88;;;8.00;60.60;;;;;;345701;28;943;-55
2023/12/17 00:46:06;;;;;;;11.73;9.60;;;8.00;60.70;;;;;;345660;28;1008;-58
2023/12/17 00:46:17;;;;;;;11.35;9.77;;;8.00;60.70;;;;;;345601;28;1079;-58
2023/12/17 00:46:27;;;;;;;12.07;10.43;;;8.00;60.60;;;;;;345666;28;865;-57
2023/12/17 00:46:38;;;;;;;12.57;10.50;;;8.00;60.60;;;;;;345506;28;1126;-57
2023/12/17 00:46:49;;;;;;;13.20;10.32;;;8.00;60.60;;;;;;345675;28;1023;-57
2023/12/17 00:47:02;;;;;;;13.67;10.27;;;8.00;60.60;;;;;;345640;28;972;-57
2023/12/17 00:47:13;;;;;;;15.40;11.43;;;8.00;60.60;;;;;;345552;28;1390;-57
2023/12/17 00:47:23;;;;;;;15.67;12.17;;;8.00;60.60;;;;;;345673;28;1028;-57
2023/12/17 00:47:34;;;;;;;16.23;13.32;;;8.10;60.60;;;;;;345615;28;1023;-57
2023/12/17 00:47:45;;;;;;;15.32;13.13;;;8.00;60.60;;;;;;345631;28;987;-57
2023/12/17 00:47:56;;;;;;;15.77;13.13;;;8.00;60.60;;;;;;345633;28;972;-58
2023/12/17 00:48:07;;;;;;;16.20;12.70;;;8.10;60.60;;;;;;345619;28;1154;-57
2023/12/17 00:48:17;;;;;;;16.90;12.98;;;8.00;60.60;;;;;;345673;28;1048;-56
2023/12/17 00:48:28;;;;;;;16.83;13.33;;;8.00;60.50;;;;;;345552;28;1050;-57
2023/12/17 00:48:39;;;;;;;16.38;13.48;;;8.10;60.50;;;;;;345470;28;1915;-56
2023/12/17 00:48:49;;;;;;;15.95;13.77;;;8.10;60.50;;;;;;345619;28;1028;-57
2023/12/17 00:49:00;;;;;;;16.88;14.25;;;8.00;60.50;;;;;;345597;28;1008;-56
2023/12/17 00:49:11;;;;;;;17.52;14.40;;;8.00;60.40;;;;;;345592;28;1024;-57
2023/12/17 00:49:22;;;;;;;16.83;14.40;;;8.10;60.40;;;;;;345560;28;1104;-56
2023/12/17 00:49:32;;;;;;;17.98;14.60;;;8.00;60.40;;;;;;345703;28;888;-57
2023/12/17 00:49:43;;;;;;;18.20;14.88;;;8.00;60.40;;;;;;345645;28;1076;-56
2023/12/17 00:49:54;;;;;;;17.58;14.90;;;8.00;60.40;;;;;;345587;28;1661;-58
2023/12/17 00:50:06;;;;;;;17.80;14.63;;;8.00;60.40;;;;;;345620;28;1008;-57
2023/12/17 00:50:16;;;;;;;17.73;14.07;;;8.00;60.40;;;;;;345566;28;1119;-57
2023/12/17 00:50:27;;;;;;;17.80;13.43;;;8.00;60.40;;;;;;345671;28;992;-56
2023/12/17 00:50:38;;;;;;;15.85;12.98;;;8.00;60.40;;;;;;345698;28;905;-57
2023/12/17 00:50:49;;;;;;;15.43;12.98;;;8.00;60.40;;;;;;345586;28;1087;-57
2023/12/17 00:50:59;;;;;;;15.60;13.20;;;8.00;60.40;;;;;;345626;28;964;-56
2023/12/17 00:51:13;;;;;;;15.35;12.82;;;8.00;60.40;;;;;;345646;28;1117;-56
2023/12/17 00:51:24;;;;;;;15.50;12.27;;;8.00;60.40;;;;;;345623;28;1202;-58
2023/12/17 00:51:35;;;;;;;14.82;11.50;;;8.00;60.30;;;;;;345653;28;1016;-57
2023/12/17 00:51:45;;;;;;;14.07;11.05;;;8.00;60.30;;;;;;345548;28;1024;-57
2023/12/17 00:51:56;;;;;;;14.20;10.90;;;8.00;60.30;;;;;;345594;28;1080;-57
2023/12/17 00:52:07;;;;;;;15.30;11.17;;;8.00;60.20;;;;;;345696;28;948;-57
2023/12/17 00:52:20;;;;;;;15.98;11.27;;;8.00;60.20;;;;;;345611;28;1578;-57
2023/12/17 00:52:32;;;;;;;15.98;11.05;;;8.00;60.10;;;;;;345683;28;1047;-57
2023/12/17 00:52:42;;;;;;;14.88;10.85;;;8.00;60.10;;;;;;345654;28;1063;-56
2023/12/17 00:52:53;;;;;;;14.73;11.40;;;8.00;60.10;;;;;;345528;28;1055;-57
2023/12/17 00:53:04;;;;;;;15.43;12.00;;;8.00;60.00;;;;;;345627;28;1008;-56
2023/12/17 00:53:15;;;;;;;15.15;11.98;;;8.00;60.00;;;;;;345677;28;1051;-57
2023/12/17 00:53:26;;;;;;;14.50;11.52;;;8.00;60.00;;;;;;345574;28;1071;-57
2023/12/17 00:53:37;;;;;;;14.30;11.20;;;8.00;60.00;;;;;;345639;28;988;-57
2023/12/17 00:53:47;;;;;;;14.93;11.18;;;8.00;60.10;;;;;;345575;28;1028;-57
2023/12/17 00:53:58;;;;;;;14.27;11.10;;;8.00;60.10;;;;;;345478;28;1080;-56
2023/12/17 00:54:09;;;;;;;15.30;11.30;;;8.00;60.10;;;;;;345675;28;1560;-56
2023/12/17 00:54:20;;;;;;;16.05;11.85;;;8.00;60.10;;;;;;345633;28;989;-58
2023/12/17 00:54:30;;;;;;;15.93;11.63;;;8.00;60.10;;;;;;345557;28;964;-58
2023/12/17 00:54:41;;;;;;;15.07;11.52;;;8.00;60.10;;;;;;345558;28;1726;-56
2023/12/17 00:54:52;;;;;;;14.30;10.60;;;8.00;60.10;;;;;;345617;28;1046;-59
2023/12/17 00:55:03;;;;;;;14.32;10.60;;;8.00;60.10;;;;;;345335;28;1028;-56
2023/12/17 00:55:14;;;;;;;14.63;10.80;;;8.00;60.00;;;;;;345467;28;1489;-57
2023/12/17 00:55:25;;;;;;;14.75;11.45;;;8.00;60.10;;;;;;345537;28;952;-58
2023/12/17 00:55:35;;;;;;;15.05;11.27;;;8.00;60.10;;;;;;345455;28;925;-57
2023/12/17 00:55:46;;;;;;;14.35;11.05;;;7.90;60.10;;;;;;345582;28;869;-58
2023/12/17 00:55:57;;;;;;;14.23;10.73;;;8.00;60.10;;;;;;345539;28;1072;-57
2023/12/17 00:56:08;;;;;;;13.85;10.60;;;8.00;60.10;;;;;;345545;28;995;-58
2023/12/17 00:56:19;;;;;;;13.45;10.50;;;8.00;60.10;;;;;;345455;28;984;-57
2023/12/17 00:56:30;;;;;;;12.38;10.43;;;7.90;60.10;;;;;;345540;28;819;-57
2023/12/17 00:56:40;;;;;;;12.27;10.75;;;7.90;60.10;;;;;;345510;28;1127;-56
2023/12/17 00:56:51;;;;;;;12.80;10.85;;;7.90;60.10;;;;;;345556;28;874;-58
2023/12/17 00:57:02;;;;;;;13.52;10.77;;;7.90;60.10;;;;;;345554;28;1006;-57
2023/12/17 00:57:13;;;;;;;14.73;11.07;;;7.90;60.20;;;;;;345595;28;1083;-57
2023/12/17 00:57:25;;;;;;;14.27;11.17;;;7.90;60.10;;;;;;345573;28;1134;-57
2023/12/17 00:57:36;;;;;;;13.48;11.10;;;7.90;60.20;;;;;;345645;28;1178;-56
2023/12/17 00:57:46;;;;;;;12.88;10.73;;;7.90;60.10;;;;;;345560;28;1160;-56
2023/12/17 00:57:57;;;;;;;13.10;10.63;;;7.90;60.20;;;;;;345657;28;845;-57